Terminal Aerodrome Forecast
Issued by NWS Wilmington, NC

Home | Current Version | Previous Version | Text Only | Print | Product List | Glossary On
Versions: 1 2 3 4 5 6 7 8 9 10 11 12 13 14 15 16 17
225
FTUS42 KILM 201121
TAFILM
TAF
KILM 201121Z 2012/2112 09003KT P6SM VCSH BKN035 BKN200
     FM201500 12006KT P6SM SCT025 BKN100
     FM201800 23009KT P6SM SCT100 SCT250
     FM210000 21002KT P6SM SCT090 BKN250
     FM210700 00000KT 1SM BR BKN004 BKN050=

USA.gov is the U.S. government's official web portal to all federal, state and local government web resources and services.